Bryan, Texas
Current Conditions -  °F | °C
As of 12:15 PM on Tuesday 21 Oct 2014 (Local Time) from KCFD Reporting Station
Clear Clear  
Wind Chill: 76°   Ceiling: Unl
Heat Index: 76°   Visibility: 10mi
Dew Point: 56°   Wind: 5mph
Humidity: 51%   Direction: 70°ENE
Pressure: 30.1"   Gusts: NA
Location:  30.67°N, 96.37°W
Report Text: KCFD 211715Z AUTO 07004KT 10SM CLR 24/13 A3010 RMK AO2 T02420134
Loading
Personal Weather Stations






























Interactive Weather Map
Tropical Storm Tracking
New forecast layout! Learn more

10-Day Weather Forecast

Advertisements
Track Severe Weather on mobile